sensor_id;sensor_type;location;lat;lon;timestamp;P1;durP1;ratioP1;P2;durP2;ratioP2
14316;SDS011;7242;50.858;6.586;2023-07-28T00:01:32;1.30;;;0.77;;
14316;SDS011;7242;50.858;6.586;2023-07-28T00:04:34;1.13;;;0.70;;
14316;SDS011;7242;50.858;6.586;2023-07-28T00:07:35;0.80;;;0.77;;
14316;SDS011;7242;50.858;6.586;2023-07-28T00:10:42;0.70;;;0.70;;
14316;SDS011;7242;50.858;6.586;2023-07-28T00:13:44;0.80;;;0.80;;
14316;SDS011;7242;50.858;6.586;2023-07-28T00:16:44;0.73;;;0.70;;
14316;SDS011;7242;50.858;6.586;2023-07-28T00:19:45;0.50;;;0.50;;
14316;SDS011;7242;50.858;6.586;2023-07-28T00:22:46;0.50;;;0.50;;
14316;SDS011;7242;50.858;6.586;2023-07-28T00:25:47;2.10;;;0.60;;
14316;SDS011;7242;50.858;6.586;2023-07-28T00:28:48;0.63;;;0.47;;
14316;SDS011;7242;50.858;6.586;2023-07-28T00:31:49;0.50;;;0.50;;
14316;SDS011;7242;50.858;6.586;2023-07-28T00:34:50;0.60;;;0.60;;
14316;SDS011;7242;50.858;6.586;2023-07-28T00:37:51;0.70;;;0.40;;
14316;SDS011;7242;50.858;6.586;2023-07-28T00:40:52;1.90;;;0.50;;
14316;SDS011;7242;50.858;6.586;2023-07-28T00:43:53;1.50;;;0.50;;
14316;SDS011;7242;50.858;6.586;2023-07-28T00:46:54;1.90;;;0.50;;
14316;SDS011;7242;50.858;6.586;2023-07-28T00:49:54;1.33;;;0.40;;
14316;SDS011;7242;50.858;6.586;2023-07-28T00:52:55;2.60;;;0.60;;
14316;SDS011;7242;50.858;6.586;2023-07-28T00:55:56;1.00;;;0.50;;
14316;SDS011;7242;50.858;6.586;2023-07-28T00:58:57;2.10;;;0.60;;
14316;SDS011;7242;50.858;6.586;2023-07-28T01:01:58;3.70;;;0.70;;
14316;SDS011;7242;50.858;6.586;2023-07-28T01:04:59;2.70;;;0.50;;
14316;SDS011;7242;50.858;6.586;2023-07-28T01:08:06;1.13;;;0.70;;
14316;SDS011;7242;50.858;6.586;2023-07-28T01:11:23;2.27;;;0.60;;
14316;SDS011;7242;50.858;6.586;2023-07-28T01:14:24;2.57;;;0.77;;
14316;SDS011;7242;50.858;6.586;2023-07-28T01:17:25;2.40;;;0.57;;
14316;SDS011;7242;50.858;6.586;2023-07-28T01:20:28;2.87;;;0.70;;
14316;SDS011;7242;50.858;6.586;2023-07-28T01:23:34;1.50;;;0.70;;
14316;SDS011;7242;50.858;6.586;2023-07-28T01:26:38;3.63;;;0.80;;
14316;SDS011;7242;50.858;6.586;2023-07-28T01:29:41;1.47;;;0.70;;
14316;SDS011;7242;50.858;6.586;2023-07-28T01:32:42;1.43;;;0.63;;
14316;SDS011;7242;50.858;6.586;2023-07-28T01:35:43;1.57;;;0.70;;
14316;SDS011;7242;50.858;6.586;2023-07-28T01:38:44;1.50;;;0.60;;
14316;SDS011;7242;50.858;6.586;2023-07-28T01:45:48;3.10;;;0.70;;
14316;SDS011;7242;50.858;6.586;2023-07-28T01:48:49;2.00;;;0.57;;
14316;SDS011;7242;50.858;6.586;2023-07-28T01:51:50;1.10;;;0.67;;
14316;SDS011;7242;50.858;6.586;2023-07-28T01:54:52;1.63;;;0.73;;
14316;SDS011;7242;50.858;6.586;2023-07-28T01:57:56;3.87;;;0.80;;
14316;SDS011;7242;50.858;6.586;2023-07-28T02:00:59;1.03;;;0.70;;
14316;SDS011;7242;50.858;6.586;2023-07-28T02:03:59;1.03;;;0.60;;
14316;SDS011;7242;50.858;6.586;2023-07-28T02:07:00;1.43;;;0.70;;
14316;SDS011;7242;50.858;6.586;2023-07-28T02:10:01;1.60;;;0.60;;
14316;SDS011;7242;50.858;6.586;2023-07-28T02:13:02;0.77;;;0.50;;
14316;SDS011;7242;50.858;6.586;2023-07-28T02:16:03;1.10;;;0.70;;
14316;SDS011;7242;50.858;6.586;2023-07-28T02:19:04;1.00;;;0.90;;
14316;SDS011;7242;50.858;6.586;2023-07-28T02:22:05;0.90;;;0.90;;
14316;SDS011;7242;50.858;6.586;2023-07-28T02:25:06;2.17;;;1.30;;
14316;SDS011;7242;50.858;6.586;2023-07-28T02:28:09;3.27;;;1.30;;
14316;SDS011;7242;50.858;6.586;2023-07-28T02:31:11;4.47;;;1.30;;
14316;SDS011;7242;50.858;6.586;2023-07-28T02:34:12;5.30;;;1.30;;
14316;SDS011;7242;50.858;6.586;2023-07-28T02:37:14;2.37;;;1.47;;
14316;SDS011;7242;50.858;6.586;2023-07-28T02:40:15;4.63;;;1.53;;
14316;SDS011;7242;50.858;6.586;2023-07-28T02:43:16;2.90;;;1.63;;
14316;SDS011;7242;50.858;6.586;2023-07-28T02:46:17;2.33;;;1.40;;
14316;SDS011;7242;50.858;6.586;2023-07-28T02:49:18;2.53;;;1.60;;
14316;SDS011;7242;50.858;6.586;2023-07-28T02:52:19;3.57;;;1.40;;
14316;SDS011;7242;50.858;6.586;2023-07-28T02:55:20;2.80;;;1.70;;
14316;SDS011;7242;50.858;6.586;2023-07-28T02:58:21;2.30;;;1.50;;
14316;SDS011;7242;50.858;6.586;2023-07-28T03:01:23;3.97;;;1.70;;
14316;SDS011;7242;50.858;6.586;2023-07-28T03:04:23;6.47;;;1.80;;
14316;SDS011;7242;50.858;6.586;2023-07-28T03:07:51;2.10;;;1.50;;
14316;SDS011;7242;50.858;6.586;2023-07-28T03:10:55;3.30;;;1.73;;
14316;SDS011;7242;50.858;6.586;2023-07-28T03:13:57;3.97;;;1.67;;
14316;SDS011;7242;50.858;6.586;2023-07-28T03:16:58;3.13;;;1.87;;
14316;SDS011;7242;50.858;6.586;2023-07-28T03:19:59;4.03;;;1.80;;
14316;SDS011;7242;50.858;6.586;2023-07-28T03:23:00;1.77;;;1.40;;
14316;SDS011;7242;50.858;6.586;2023-07-28T03:26:01;1.87;;;1.60;;
14316;SDS011;7242;50.858;6.586;2023-07-28T03:29:02;2.97;;;1.50;;
14316;SDS011;7242;50.858;6.586;2023-07-28T03:32:03;1.80;;;1.37;;
14316;SDS011;7242;50.858;6.586;2023-07-28T03:35:05;2.60;;;1.50;;
14316;SDS011;7242;50.858;6.586;2023-07-28T03:38:09;1.93;;;1.57;;
14316;SDS011;7242;50.858;6.586;2023-07-28T03:41:10;2.73;;;1.50;;
14316;SDS011;7242;50.858;6.586;2023-07-28T03:44:12;2.03;;;1.33;;
14316;SDS011;7242;50.858;6.586;2023-07-28T03:47:12;2.27;;;1.30;;
14316;SDS011;7242;50.858;6.586;2023-07-28T03:50:14;1.23;;;1.13;;
14316;SDS011;7242;50.858;6.586;2023-07-28T03:53:15;1.50;;;1.10;;
14316;SDS011;7242;50.858;6.586;2023-07-28T03:56:16;3.33;;;1.50;;
14316;SDS011;7242;50.858;6.586;2023-07-28T03:59:17;2.63;;;1.33;;
14316;SDS011;7242;50.858;6.586;2023-07-28T04:02:18;4.70;;;1.47;;
14316;SDS011;7242;50.858;6.586;2023-07-28T04:05:19;2.83;;;1.30;;
14316;SDS011;7242;50.858;6.586;2023-07-28T04:08:20;3.43;;;1.17;;
14316;SDS011;7242;50.858;6.586;2023-07-28T04:11:22;2.43;;;1.23;;
14316;SDS011;7242;50.858;6.586;2023-07-28T04:14:22;1.07;;;0.90;;
14316;SDS011;7242;50.858;6.586;2023-07-28T04:17:23;2.27;;;1.03;;
14316;SDS011;7242;50.858;6.586;2023-07-28T04:20:24;1.47;;;1.00;;
14316;SDS011;7242;50.858;6.586;2023-07-28T04:23:25;2.27;;;0.90;;
14316;SDS011;7242;50.858;6.586;2023-07-28T04:26:26;1.30;;;0.80;;
14316;SDS011;7242;50.858;6.586;2023-07-28T04:29:37;1.17;;;1.07;;
14316;SDS011;7242;50.858;6.586;2023-07-28T04:32:41;0.90;;;0.90;;
14316;SDS011;7242;50.858;6.586;2023-07-28T04:35:48;1.97;;;0.90;;
14316;SDS011;7242;50.858;6.586;2023-07-28T04:38:54;1.63;;;0.70;;
14316;SDS011;7242;50.858;6.586;2023-07-28T04:41:58;3.13;;;0.70;;
14316;SDS011;7242;50.858;6.586;2023-07-28T04:45:00;0.70;;;0.60;;
14316;SDS011;7242;50.858;6.586;2023-07-28T04:48:02;0.80;;;0.60;;
14316;SDS011;7242;50.858;6.586;2023-07-28T04:51:04;0.63;;;0.63;;
14316;SDS011;7242;50.858;6.586;2023-07-28T04:54:34;1.60;;;0.87;;
14316;SDS011;7242;50.858;6.586;2023-07-28T04:57:35;1.57;;;0.73;;
14316;SDS011;7242;50.858;6.586;2023-07-28T05:00:36;1.77;;;0.70;;
14316;SDS011;7242;50.858;6.586;2023-07-28T05:03:36;1.13;;;0.80;;
14316;SDS011;7242;50.858;6.586;2023-07-28T05:06:53;0.70;;;0.70;;
14316;SDS011;7242;50.858;6.586;2023-07-28T05:09:54;2.97;;;0.90;;
14316;SDS011;7242;50.858;6.586;2023-07-28T05:12:58;1.53;;;0.70;;
14316;SDS011;7242;50.858;6.586;2023-07-28T05:16:00;0.77;;;0.70;;
14316;SDS011;7242;50.858;6.586;2023-07-28T05:19:21;0.87;;;0.60;;
14316;SDS011;7242;50.858;6.586;2023-07-28T05:22:34;1.80;;;0.50;;
14316;SDS011;7242;50.858;6.586;2023-07-28T05:25:34;2.40;;;0.60;;
14316;SDS011;7242;50.858;6.586;2023-07-28T05:28:35;0.70;;;0.50;;
14316;SDS011;7242;50.858;6.586;2023-07-28T05:31:37;1.17;;;0.60;;
14316;SDS011;7242;50.858;6.586;2023-07-28T05:34:43;0.60;;;0.60;;
14316;SDS011;7242;50.858;6.586;2023-07-28T05:37:45;1.00;;;0.70;;
14316;SDS011;7242;50.858;6.586;2023-07-28T05:40:45;0.90;;;0.50;;
14316;SDS011;7242;50.858;6.586;2023-07-28T05:43:47;0.60;;;0.60;;
14316;SDS011;7242;50.858;6.586;2023-07-28T05:46:48;1.13;;;0.73;;
14316;SDS011;7242;50.858;6.586;2023-07-28T05:49:51;2.00;;;0.60;;
14316;SDS011;7242;50.858;6.586;2023-07-28T05:52:53;1.70;;;0.73;;
14316;SDS011;7242;50.858;6.586;2023-07-28T05:55:54;1.00;;;0.70;;
14316;SDS011;7242;50.858;6.586;2023-07-28T05:58:55;1.03;;;0.60;;
14316;SDS011;7242;50.858;6.586;2023-07-28T06:01:57;0.60;;;0.60;;
14316;SDS011;7242;50.858;6.586;2023-07-28T06:04:58;1.40;;;0.70;;
14316;SDS011;7242;50.858;6.586;2023-07-28T06:07:59;3.70;;;0.70;;
14316;SDS011;7242;50.858;6.586;2023-07-28T06:11:02;1.13;;;0.60;;
14316;SDS011;7242;50.858;6.586;2023-07-28T06:14:04;0.77;;;0.73;;
14316;SDS011;7242;50.858;6.586;2023-07-28T06:17:08;1.23;;;0.80;;
14316;SDS011;7242;50.858;6.586;2023-07-28T06:20:10;0.60;;;0.60;;
14316;SDS011;7242;50.858;6.586;2023-07-28T06:23:11;1.47;;;0.70;;
14316;SDS011;7242;50.858;6.586;2023-07-28T06:26:12;0.77;;;0.77;;
14316;SDS011;7242;50.858;6.586;2023-07-28T06:29:14;1.50;;;0.87;;
14316;SDS011;7242;50.858;6.586;2023-07-28T06:32:15;1.00;;;0.90;;
14316;SDS011;7242;50.858;6.586;2023-07-28T06:35:16;2.63;;;0.80;;
14316;SDS011;7242;50.858;6.586;2023-07-28T06:38:17;0.90;;;0.90;;
14316;SDS011;7242;50.858;6.586;2023-07-28T06:41:19;1.20;;;1.10;;
14316;SDS011;7242;50.858;6.586;2023-07-28T06:44:20;0.90;;;0.90;;
14316;SDS011;7242;50.858;6.586;2023-07-28T06:47:21;1.57;;;1.20;;
14316;SDS011;7242;50.858;6.586;2023-07-28T06:50:21;2.37;;;1.20;;
14316;SDS011;7242;50.858;6.586;2023-07-28T06:53:23;1.33;;;1.17;;
14316;SDS011;7242;50.858;6.586;2023-07-28T06:56:24;2.20;;;1.33;;
14316;SDS011;7242;50.858;6.586;2023-07-28T06:59:25;2.57;;;1.43;;
14316;SDS011;7242;50.858;6.586;2023-07-28T07:02:26;2.10;;;1.20;;
14316;SDS011;7242;50.858;6.586;2023-07-28T07:05:27;1.20;;;1.10;;
14316;SDS011;7242;50.858;6.586;2023-07-28T07:08:28;2.30;;;1.30;;
14316;SDS011;7242;50.858;6.586;2023-07-28T07:11:29;1.30;;;1.10;;
14316;SDS011;7242;50.858;6.586;2023-07-28T07:14:31;1.10;;;0.80;;
14316;SDS011;7242;50.858;6.586;2023-07-28T07:17:31;1.67;;;1.20;;
14316;SDS011;7242;50.858;6.586;2023-07-28T07:20:35;1.77;;;0.87;;
14316;SDS011;7242;50.858;6.586;2023-07-28T07:23:37;0.67;;;0.67;;
14316;SDS011;7242;50.858;6.586;2023-07-28T07:26:37;1.33;;;0.80;;
14316;SDS011;7242;50.858;6.586;2023-07-28T07:29:39;4.30;;;1.10;;
14316;SDS011;7242;50.858;6.586;2023-07-28T07:32:40;2.60;;;0.93;;
14316;SDS011;7242;50.858;6.586;2023-07-28T07:35:40;4.20;;;1.40;;
14316;SDS011;7242;50.858;6.586;2023-07-28T07:38:41;1.27;;;0.70;;
14316;SDS011;7242;50.858;6.586;2023-07-28T07:41:42;1.90;;;0.77;;
14316;SDS011;7242;50.858;6.586;2023-07-28T07:44:43;0.73;;;0.63;;
14316;SDS011;7242;50.858;6.586;2023-07-28T07:47:44;1.63;;;0.90;;
14316;SDS011;7242;50.858;6.586;2023-07-28T07:50:45;0.73;;;0.67;;
14316;SDS011;7242;50.858;6.586;2023-07-28T07:53:45;0.67;;;0.67;;
14316;SDS011;7242;50.858;6.586;2023-07-28T07:56:46;0.53;;;0.53;;
14316;SDS011;7242;50.858;6.586;2023-07-28T07:59:47;1.63;;;0.90;;
14316;SDS011;7242;50.858;6.586;2023-07-28T08:02:48;0.80;;;0.70;;
14316;SDS011;7242;50.858;6.586;2023-07-28T08:05:52;2.07;;;0.80;;
14316;SDS011;7242;50.858;6.586;2023-07-28T08:08:53;0.90;;;0.90;;
14316;SDS011;7242;50.858;6.586;2023-07-28T08:11:55;1.00;;;0.90;;
14316;SDS011;7242;50.858;6.586;2023-07-28T08:14:56;1.00;;;0.90;;
14316;SDS011;7242;50.858;6.586;2023-07-28T08:17:57;0.70;;;0.70;;
14316;SDS011;7242;50.858;6.586;2023-07-28T08:20:58;0.60;;;0.60;;
14316;SDS011;7242;50.858;6.586;2023-07-28T08:23:59;0.77;;;0.40;;
14316;SDS011;7242;50.858;6.586;2023-07-28T08:27:00;0.87;;;0.60;;
14316;SDS011;7242;50.858;6.586;2023-07-28T08:30:02;0.80;;;0.40;;
14316;SDS011;7242;50.858;6.586;2023-07-28T08:33:03;0.40;;;0.40;;
14316;SDS011;7242;50.858;6.586;2023-07-28T08:36:04;1.23;;;0.60;;
14316;SDS011;7242;50.858;6.586;2023-07-28T08:39:05;0.50;;;0.50;;
14316;SDS011;7242;50.858;6.586;2023-07-28T08:42:06;0.53;;;0.40;;
14316;SDS011;7242;50.858;6.586;2023-07-28T08:45:07;2.60;;;0.50;;
14316;SDS011;7242;50.858;6.586;2023-07-28T08:48:08;0.57;;;0.57;;
14316;SDS011;7242;50.858;6.586;2023-07-28T08:51:09;0.70;;;0.40;;
14316;SDS011;7242;50.858;6.586;2023-07-28T08:54:12;0.60;;;0.60;;
14316;SDS011;7242;50.858;6.586;2023-07-28T08:57:13;0.83;;;0.40;;
14316;SDS011;7242;50.858;6.586;2023-07-28T09:00:14;0.47;;;0.30;;
14316;SDS011;7242;50.858;6.586;2023-07-28T09:03:18;1.23;;;0.40;;
14316;SDS011;7242;50.858;6.586;2023-07-28T09:06:19;0.40;;;0.40;;
14316;SDS011;7242;50.858;6.586;2023-07-28T09:09:31;0.47;;;0.40;;
14316;SDS011;7242;50.858;6.586;2023-07-28T09:12:32;0.50;;;0.50;;
14316;SDS011;7242;50.858;6.586;2023-07-28T09:15:34;0.40;;;0.40;;
14316;SDS011;7242;50.858;6.586;2023-07-28T09:18:36;0.50;;;0.50;;
14316;SDS011;7242;50.858;6.586;2023-07-28T09:21:37;0.50;;;0.50;;
14316;SDS011;7242;50.858;6.586;2023-07-28T09:24:39;0.70;;;0.70;;
14316;SDS011;7242;50.858;6.586;2023-07-28T09:27:40;0.60;;;0.60;;
14316;SDS011;7242;50.858;6.586;2023-07-28T09:30:46;0.53;;;0.53;;
14316;SDS011;7242;50.858;6.586;2023-07-28T09:33:47;0.87;;;0.70;;
14316;SDS011;7242;50.858;6.586;2023-07-28T09:36:49;0.70;;;0.70;;
14316;SDS011;7242;50.858;6.586;2023-07-28T09:39:50;1.13;;;0.60;;
14316;SDS011;7242;50.858;6.586;2023-07-28T09:42:51;2.20;;;0.50;;
14316;SDS011;7242;50.858;6.586;2023-07-28T09:45:54;0.30;;;0.30;;
14316;SDS011;7242;50.858;6.586;2023-07-28T09:48:57;0.50;;;0.50;;
14316;SDS011;7242;50.858;6.586;2023-07-28T09:52:00;0.80;;;0.43;;
14316;SDS011;7242;50.858;6.586;2023-07-28T09:55:05;1.03;;;0.50;;
14316;SDS011;7242;50.858;6.586;2023-07-28T09:58:09;1.00;;;0.40;;
14316;SDS011;7242;50.858;6.586;2023-07-28T10:01:12;1.90;;;0.33;;
14316;SDS011;7242;50.858;6.586;2023-07-28T10:04:13;0.30;;;0.30;;
14316;SDS011;7242;50.858;6.586;2023-07-28T10:07:15;0.37;;;0.20;;
14316;SDS011;7242;50.858;6.586;2023-07-28T10:10:16;0.43;;;0.30;;
14316;SDS011;7242;50.858;6.586;2023-07-28T10:13:20;1.27;;;0.30;;
14316;SDS011;7242;50.858;6.586;2023-07-28T10:16:29;1.90;;;0.40;;
14316;SDS011;7242;50.858;6.586;2023-07-28T10:19:34;0.33;;;0.33;;
14316;SDS011;7242;50.858;6.586;2023-07-28T10:22:42;2.27;;;0.60;;
14316;SDS011;7242;50.858;6.586;2023-07-28T10:25:45;0.80;;;0.80;;
14316;SDS011;7242;50.858;6.586;2023-07-28T10:28:46;0.70;;;0.70;;
14316;SDS011;7242;50.858;6.586;2023-07-28T10:31:50;0.60;;;0.60;;
14316;SDS011;7242;50.858;6.586;2023-07-28T10:35:01;0.40;;;0.40;;
14316;SDS011;7242;50.858;6.586;2023-07-28T10:38:27;1.53;;;0.80;;
14316;SDS011;7242;50.858;6.586;2023-07-28T10:41:29;1.27;;;0.70;;
14316;SDS011;7242;50.858;6.586;2023-07-28T10:44:33;0.57;;;0.57;;
14316;SDS011;7242;50.858;6.586;2023-07-28T10:47:34;1.63;;;0.67;;
14316;SDS011;7242;50.858;6.586;2023-07-28T10:50:36;0.90;;;0.60;;
14316;SDS011;7242;50.858;6.586;2023-07-28T10:53:36;0.50;;;0.50;;
14316;SDS011;7242;50.858;6.586;2023-07-28T10:56:38;0.67;;;0.50;;
14316;SDS011;7242;50.858;6.586;2023-07-28T10:59:38;1.63;;;0.50;;
14316;SDS011;7242;50.858;6.586;2023-07-28T11:02:46;0.87;;;0.40;;
14316;SDS011;7242;50.858;6.586;2023-07-28T11:05:51;0.60;;;0.60;;
14316;SDS011;7242;50.858;6.586;2023-07-28T11:08:52;1.80;;;0.70;;
14316;SDS011;7242;50.858;6.586;2023-07-28T11:11:52;1.90;;;0.90;;
14316;SDS011;7242;50.858;6.586;2023-07-28T11:14:53;0.83;;;0.73;;
14316;SDS011;7242;50.858;6.586;2023-07-28T11:17:54;5.23;;;3.33;;
14316;SDS011;7242;50.858;6.586;2023-07-28T11:20:56;1.07;;;0.70;;
14316;SDS011;7242;50.858;6.586;2023-07-28T11:23:56;0.60;;;0.60;;
14316;SDS011;7242;50.858;6.586;2023-07-28T11:26:57;1.80;;;0.50;;
14316;SDS011;7242;50.858;6.586;2023-07-28T11:29:59;0.40;;;0.40;;
14316;SDS011;7242;50.858;6.586;2023-07-28T11:33:03;0.50;;;0.50;;
14316;SDS011;7242;50.858;6.586;2023-07-28T11:36:05;0.57;;;0.40;;
14316;SDS011;7242;50.858;6.586;2023-07-28T11:39:06;0.30;;;0.30;;
14316;SDS011;7242;50.858;6.586;2023-07-28T11:42:07;0.30;;;0.30;;
14316;SDS011;7242;50.858;6.586;2023-07-28T11:45:10;0.60;;;0.37;;
14316;SDS011;7242;50.858;6.586;2023-07-28T11:48:11;0.40;;;0.40;;
14316;SDS011;7242;50.858;6.586;2023-07-28T11:51:15;0.33;;;0.33;;
14316;SDS011;7242;50.858;6.586;2023-07-28T11:54:16;0.70;;;0.70;;
14316;SDS011;7242;50.858;6.586;2023-07-28T11:57:21;0.53;;;0.40;;
14316;SDS011;7242;50.858;6.586;2023-07-28T12:00:32;0.83;;;0.40;;
14316;SDS011;7242;50.858;6.586;2023-07-28T12:03:36;2.10;;;0.70;;
14316;SDS011;7242;50.858;6.586;2023-07-28T12:07:27;0.90;;;0.60;;
14316;SDS011;7242;50.858;6.586;2023-07-28T12:10:06;1.33;;;0.67;;
14316;SDS011;7242;50.858;6.586;2023-07-28T12:13:09;0.77;;;0.60;;
14316;SDS011;7242;50.858;6.586;2023-07-28T12:16:11;0.40;;;0.40;;
14316;SDS011;7242;50.858;6.586;2023-07-28T12:19:31;1.33;;;0.60;;
14316;SDS011;7242;50.858;6.586;2023-07-28T12:22:32;0.50;;;0.50;;
14316;SDS011;7242;50.858;6.586;2023-07-28T12:25:33;0.70;;;0.50;;
14316;SDS011;7242;50.858;6.586;2023-07-28T12:28:36;1.50;;;0.60;;
14316;SDS011;7242;50.858;6.586;2023-07-28T12:31:37;0.40;;;0.40;;
14316;SDS011;7242;50.858;6.586;2023-07-28T12:34:39;0.50;;;0.50;;
14316;SDS011;7242;50.858;6.586;2023-07-28T12:37:40;1.13;;;0.60;;
14316;SDS011;7242;50.858;6.586;2023-07-28T12:40:41;1.17;;;0.90;;
14316;SDS011;7242;50.858;6.586;2023-07-28T12:43:42;0.43;;;0.43;;
14316;SDS011;7242;50.858;6.586;2023-07-28T12:46:43;0.40;;;0.40;;
14316;SDS011;7242;50.858;6.586;2023-07-28T12:49:44;0.93;;;0.37;;
14316;SDS011;7242;50.858;6.586;2023-07-28T12:52:45;1.10;;;0.40;;
14316;SDS011;7242;50.858;6.586;2023-07-28T12:55:46;0.40;;;0.40;;
14316;SDS011;7242;50.858;6.586;2023-07-28T12:58:47;0.27;;;0.27;;
14316;SDS011;7242;50.858;6.586;2023-07-28T13:01:48;1.33;;;0.30;;
14316;SDS011;7242;50.858;6.586;2023-07-28T13:04:49;0.40;;;0.40;;
14316;SDS011;7242;50.858;6.586;2023-07-28T13:07:50;1.70;;;0.50;;
14316;SDS011;7242;50.858;6.586;2023-07-28T13:10:51;0.20;;;0.20;;
14316;SDS011;7242;50.858;6.586;2023-07-28T13:13:51;0.70;;;0.20;;
14316;SDS011;7242;50.858;6.586;2023-07-28T13:16:52;0.77;;;0.33;;
14316;SDS011;7242;50.858;6.586;2023-07-28T13:19:54;0.30;;;0.30;;
14316;SDS011;7242;50.858;6.586;2023-07-28T13:22:57;0.70;;;0.70;;
14316;SDS011;7242;50.858;6.586;2023-07-28T13:25:57;0.13;;;0.13;;
14316;SDS011;7242;50.858;6.586;2023-07-28T13:28:58;0.17;;;0.17;;
14316;SDS011;7242;50.858;6.586;2023-07-28T13:32:01;0.50;;;0.30;;
14316;SDS011;7242;50.858;6.586;2023-07-28T13:35:02;0.20;;;0.20;;
14316;SDS011;7242;50.858;6.586;2023-07-28T13:38:04;0.30;;;0.20;;
14316;SDS011;7242;50.858;6.586;2023-07-28T13:41:05;0.40;;;0.30;;
14316;SDS011;7242;50.858;6.586;2023-07-28T13:44:06;0.20;;;0.20;;
14316;SDS011;7242;50.858;6.586;2023-07-28T13:47:07;0.40;;;0.10;;
14316;SDS011;7242;50.858;6.586;2023-07-28T13:50:08;0.10;;;0.10;;
14316;SDS011;7242;50.858;6.586;2023-07-28T13:53:09;0.20;;;0.20;;
14316;SDS011;7242;50.858;6.586;2023-07-28T13:56:10;0.37;;;0.20;;
14316;SDS011;7242;50.858;6.586;2023-07-28T13:59:11;1.27;;;0.20;;
14316;SDS011;7242;50.858;6.586;2023-07-28T14:02:12;0.40;;;0.10;;
14316;SDS011;7242;50.858;6.586;2023-07-28T14:05:13;1.57;;;0.47;;
14316;SDS011;7242;50.858;6.586;2023-07-28T14:08:14;0.43;;;0.27;;
14316;SDS011;7242;50.858;6.586;2023-07-28T14:11:15;0.57;;;0.30;;
14316;SDS011;7242;50.858;6.586;2023-07-28T14:14:17;0.10;;;0.10;;
14316;SDS011;7242;50.858;6.586;2023-07-28T14:17:17;0.37;;;0.23;;
14316;SDS011;7242;50.858;6.586;2023-07-28T14:20:18;0.40;;;0.20;;
14316;SDS011;7242;50.858;6.586;2023-07-28T14:23:20;0.23;;;0.23;;
14316;SDS011;7242;50.858;6.586;2023-07-28T14:26:21;0.33;;;0.27;;
14316;SDS011;7242;50.858;6.586;2023-07-28T14:29:22;0.60;;;0.40;;
14316;SDS011;7242;50.858;6.586;2023-07-28T14:32:23;0.67;;;0.40;;
14316;SDS011;7242;50.858;6.586;2023-07-28T14:35:24;0.63;;;0.30;;
14316;SDS011;7242;50.858;6.586;2023-07-28T14:38:25;0.40;;;0.40;;
14316;SDS011;7242;50.858;6.586;2023-07-28T14:41:26;0.57;;;0.40;;
14316;SDS011;7242;50.858;6.586;2023-07-28T14:44:27;1.50;;;0.30;;
14316;SDS011;7242;50.858;6.586;2023-07-28T14:47:28;0.60;;;0.27;;
14316;SDS011;7242;50.858;6.586;2023-07-28T14:50:28;0.40;;;0.27;;
14316;SDS011;7242;50.858;6.586;2023-07-28T14:53:33;0.30;;;0.30;;
14316;SDS011;7242;50.858;6.586;2023-07-28T14:56:35;0.30;;;0.30;;
14316;SDS011;7242;50.858;6.586;2023-07-28T14:59:36;0.20;;;0.20;;
14316;SDS011;7242;50.858;6.586;2023-07-28T15:02:37;0.20;;;0.20;;
14316;SDS011;7242;50.858;6.586;2023-07-28T15:05:38;0.63;;;0.30;;
14316;SDS011;7242;50.858;6.586;2023-07-28T15:08:39;0.73;;;0.33;;
14316;SDS011;7242;50.858;6.586;2023-07-28T15:11:41;0.37;;;0.30;;
14316;SDS011;7242;50.858;6.586;2023-07-28T15:14:41;0.50;;;0.30;;
14316;SDS011;7242;50.858;6.586;2023-07-28T15:17:43;0.30;;;0.30;;
14316;SDS011;7242;50.858;6.586;2023-07-28T15:20:44;0.60;;;0.40;;
14316;SDS011;7242;50.858;6.586;2023-07-28T15:23:45;0.30;;;0.30;;
14316;SDS011;7242;50.858;6.586;2023-07-28T15:26:52;1.80;;;0.40;;
14316;SDS011;7242;50.858;6.586;2023-07-28T15:29:53;0.73;;;0.40;;
14316;SDS011;7242;50.858;6.586;2023-07-28T15:32:54;0.30;;;0.30;;
14316;SDS011;7242;50.858;6.586;2023-07-28T15:35:55;0.77;;;0.40;;
14316;SDS011;7242;50.858;6.586;2023-07-28T15:38:57;1.03;;;0.37;;
14316;SDS011;7242;50.858;6.586;2023-07-28T15:41:57;0.93;;;0.60;;
14316;SDS011;7242;50.858;6.586;2023-07-28T15:44:58;1.57;;;0.50;;
14316;SDS011;7242;50.858;6.586;2023-07-28T15:48:00;3.70;;;0.60;;
14316;SDS011;7242;50.858;6.586;2023-07-28T15:51:00;0.73;;;0.40;;
14316;SDS011;7242;50.858;6.586;2023-07-28T15:54:01;0.80;;;0.63;;
14316;SDS011;7242;50.858;6.586;2023-07-28T15:57:02;0.93;;;0.60;;
14316;SDS011;7242;50.858;6.586;2023-07-28T16:00:03;0.70;;;0.50;;
14316;SDS011;7242;50.858;6.586;2023-07-28T16:03:12;1.50;;;0.60;;
14316;SDS011;7242;50.858;6.586;2023-07-28T16:06:12;0.60;;;0.60;;
14316;SDS011;7242;50.858;6.586;2023-07-28T16:09:14;2.67;;;0.70;;
14316;SDS011;7242;50.858;6.586;2023-07-28T16:12:14;2.10;;;0.70;;
14316;SDS011;7242;50.858;6.586;2023-07-28T16:15:15;1.80;;;0.80;;
14316;SDS011;7242;50.858;6.586;2023-07-28T16:18:16;2.03;;;0.90;;
14316;SDS011;7242;50.858;6.586;2023-07-28T16:21:17;2.07;;;1.03;;
14316;SDS011;7242;50.858;6.586;2023-07-28T16:24:18;3.20;;;1.10;;
14316;SDS011;7242;50.858;6.586;2023-07-28T16:27:19;2.77;;;1.63;;
14316;SDS011;7242;50.858;6.586;2023-07-28T16:30:19;3.27;;;1.70;;
14316;SDS011;7242;50.858;6.586;2023-07-28T16:33:21;3.47;;;1.50;;
14316;SDS011;7242;50.858;6.586;2023-07-28T16:36:22;3.97;;;1.10;;
14316;SDS011;7242;50.858;6.586;2023-07-28T16:39:23;3.10;;;1.37;;
14316;SDS011;7242;50.858;6.586;2023-07-28T16:42:23;0.80;;;0.80;;
14316;SDS011;7242;50.858;6.586;2023-07-28T16:45:25;1.00;;;0.87;;
14316;SDS011;7242;50.858;6.586;2023-07-28T16:48:25;0.97;;;0.70;;
14316;SDS011;7242;50.858;6.586;2023-07-28T16:51:27;1.00;;;0.90;;
14316;SDS011;7242;50.858;6.586;2023-07-28T16:54:28;1.07;;;0.80;;
14316;SDS011;7242;50.858;6.586;2023-07-28T16:57:29;1.10;;;0.90;;
14316;SDS011;7242;50.858;6.586;2023-07-28T17:00:30;0.83;;;0.83;;
14316;SDS011;7242;50.858;6.586;2023-07-28T17:03:31;0.97;;;0.90;;
14316;SDS011;7242;50.858;6.586;2023-07-28T17:06:32;0.70;;;0.70;;
14316;SDS011;7242;50.858;6.586;2023-07-28T17:09:34;0.70;;;0.70;;
14316;SDS011;7242;50.858;6.586;2023-07-28T17:12:35;0.80;;;0.80;;
14316;SDS011;7242;50.858;6.586;2023-07-28T17:15:36;1.97;;;0.90;;
14316;SDS011;7242;50.858;6.586;2023-07-28T17:18:36;3.27;;;1.57;;
14316;SDS011;7242;50.858;6.586;2023-07-28T17:21:37;0.73;;;0.73;;
14316;SDS011;7242;50.858;6.586;2023-07-28T17:24:38;0.90;;;0.90;;
14316;SDS011;7242;50.858;6.586;2023-07-28T17:27:39;2.17;;;1.50;;
14316;SDS011;7242;50.858;6.586;2023-07-28T17:30:40;1.03;;;1.00;;
14316;SDS011;7242;50.858;6.586;2023-07-28T17:33:41;0.97;;;0.90;;
14316;SDS011;7242;50.858;6.586;2023-07-28T17:36:42;2.03;;;1.13;;
14316;SDS011;7242;50.858;6.586;2023-07-28T17:39:43;2.20;;;1.53;;
14316;SDS011;7242;50.858;6.586;2023-07-28T17:42:44;1.10;;;0.90;;
14316;SDS011;7242;50.858;6.586;2023-07-28T17:45:46;3.53;;;1.00;;
14316;SDS011;7242;50.858;6.586;2023-07-28T17:48:47;1.30;;;0.90;;
14316;SDS011;7242;50.858;6.586;2023-07-28T17:51:48;0.90;;;0.90;;
14316;SDS011;7242;50.858;6.586;2023-07-28T17:54:49;2.30;;;0.93;;
14316;SDS011;7242;50.858;6.586;2023-07-28T17:57:50;1.93;;;0.90;;
14316;SDS011;7242;50.858;6.586;2023-07-28T18:00:51;1.37;;;0.90;;
14316;SDS011;7242;50.858;6.586;2023-07-28T18:03:52;1.47;;;1.00;;
14316;SDS011;7242;50.858;6.586;2023-07-28T18:06:54;2.67;;;1.10;;
14316;SDS011;7242;50.858;6.586;2023-07-28T18:09:55;1.50;;;1.00;;
14316;SDS011;7242;50.858;6.586;2023-07-28T18:12:56;1.00;;;0.90;;
14316;SDS011;7242;50.858;6.586;2023-07-28T18:15:57;1.50;;;0.90;;
14316;SDS011;7242;50.858;6.586;2023-07-28T18:18:58;1.30;;;1.03;;
14316;SDS011;7242;50.858;6.586;2023-07-28T18:21:59;3.17;;;1.13;;
14316;SDS011;7242;50.858;6.586;2023-07-28T18:25:00;2.47;;;1.20;;
14316;SDS011;7242;50.858;6.586;2023-07-28T18:28:00;1.40;;;1.10;;
14316;SDS011;7242;50.858;6.586;2023-07-28T18:31:02;2.77;;;1.20;;
14316;SDS011;7242;50.858;6.586;2023-07-28T18:34:04;1.30;;;1.00;;
14316;SDS011;7242;50.858;6.586;2023-07-28T18:37:05;1.07;;;0.97;;